Mones Cazon, Argentina
Current Conditions -  °F | °C
As of 6:00 PM on Thursday 20 Nov 2014 (Local Time) from SAEZ Reporting Station
Clear Clear  
Wind Chill: 24°   Ceiling: Unl
Heat Index: 24°   Visibility: 6mi
Dew Point: 14°   Wind: 7mph
Humidity: 53%   Direction: 150°SSE
Pressure: 29.97"   Gusts: NA
Location:  36.23°S, 62°W
Report Text: SAEZ 202100Z 15006KT CAVOK 24/14 Q1015
Loading
Personal Weather Stations






























Interactive Weather Map New forecast layout! Learn more

10-Day Weather Forecast

Advertisements
Track Severe Weather on mobile